createdAt,value
2022-08-23T00:01:23.982Z,0.90
2022-08-23T00:03:53.390Z,0.87
2022-08-23T00:06:22.704Z,1.00
2022-08-23T00:08:52.057Z,0.90
2022-08-23T00:11:28.884Z,0.70
2022-08-23T00:13:56.526Z,0.77
2022-08-23T00:16:23.858Z,0.90
2022-08-23T00:18:50.879Z,0.80
2022-08-23T00:21:18.009Z,0.90
2022-08-23T00:23:44.892Z,1.00
2022-08-23T00:26:11.873Z,0.70
2022-08-23T00:28:39.016Z,0.90
2022-08-23T00:31:06.078Z,0.50
2022-08-23T00:33:33.076Z,0.70
2022-08-23T00:36:00.119Z,0.90
2022-08-23T00:38:34.235Z,0.90
2022-08-23T00:41:02.937Z,0.60
2022-08-23T00:43:54.384Z,0.73
2022-08-23T00:47:02.117Z,1.00
2022-08-23T00:49:31.828Z,0.60
2022-08-23T00:52:09.309Z,0.80
2022-08-23T00:54:39.454Z,0.80
2022-08-23T00:57:12.043Z,0.70
2022-08-23T00:59:39.441Z,0.70
2022-08-23T01:02:07.580Z,0.77
2022-08-23T01:04:40.159Z,0.70
2022-08-23T01:07:20.755Z,0.77
2022-08-23T01:09:51.273Z,0.80
2022-08-23T01:12:33.352Z,0.63
2022-08-23T01:15:07.400Z,0.60
2022-08-23T01:18:06.468Z,0.63
2022-08-23T01:20:52.080Z,0.80
2022-08-23T01:23:37.042Z,0.60
2022-08-23T01:26:05.944Z,0.80
2022-08-23T01:28:33.697Z,1.00
2022-08-23T01:31:01.569Z,0.80
2022-08-23T01:33:29.648Z,0.67
2022-08-23T01:35:58.544Z,0.70
2022-08-23T01:38:32.720Z,1.00
2022-08-23T01:41:00.496Z,0.70
2022-08-23T01:43:27.592Z,0.77
2022-08-23T01:45:55.874Z,0.70
2022-08-23T01:48:25.634Z,0.67
2022-08-23T01:50:52.787Z,0.80
2022-08-23T01:53:20.067Z,0.70
2022-08-23T01:55:49.899Z,1.10
2022-08-23T01:58:19.334Z,0.67
2022-08-23T02:00:46.401Z,0.90
2022-08-23T02:03:14.268Z,0.83
2022-08-23T02:05:42.719Z,0.80
2022-08-23T02:08:30.365Z,0.80
2022-08-23T02:10:59.452Z,1.00
2022-08-23T02:13:27.153Z,0.60
2022-08-23T02:15:55.245Z,0.57
2022-08-23T02:18:23.733Z,0.80
2022-08-23T02:20:52.919Z,0.87
2022-08-23T02:23:20.972Z,0.77
2022-08-23T02:25:48.652Z,0.70
2022-08-23T02:28:15.943Z,0.70
2022-08-23T02:30:45.340Z,0.60
2022-08-23T02:33:14.233Z,0.80
2022-08-23T02:35:43.589Z,0.70
2022-08-23T02:38:13.205Z,0.60
2022-08-23T02:40:42.348Z,0.63
2022-08-23T02:43:10.484Z,1.00
2022-08-23T02:45:38.976Z,0.60
2022-08-23T02:48:08.206Z,0.80
2022-08-23T02:50:43.774Z,0.83
2022-08-23T02:53:10.913Z,0.60
2022-08-23T02:55:38.572Z,0.50
2022-08-23T02:58:05.870Z,0.70
2022-08-23T03:00:32.971Z,0.50
2022-08-23T03:03:00.201Z,0.80
2022-08-23T03:05:27.353Z,0.60
2022-08-23T03:07:54.606Z,0.80
2022-08-23T03:10:21.749Z,0.60
2022-08-23T03:12:54.849Z,0.80
2022-08-23T03:15:21.875Z,0.53
2022-08-23T03:17:49.309Z,0.60
2022-08-23T03:20:17.063Z,0.60
2022-08-23T03:22:48.357Z,0.57
2022-08-23T03:25:22.421Z,0.80
2022-08-23T03:28:16.570Z,0.77
2022-08-23T03:30:45.006Z,1.37
2022-08-23T03:33:13.174Z,0.60
2022-08-23T03:35:41.172Z,0.60
2022-08-23T03:38:30.729Z,0.70
2022-08-23T03:41:18.694Z,0.70
2022-08-23T03:44:05.697Z,0.60
2022-08-23T03:46:56.094Z,0.57
2022-08-23T03:49:43.256Z,0.60
2022-08-23T03:52:11.388Z,0.40
2022-08-23T03:54:38.931Z,0.60
2022-08-23T03:57:09.552Z,0.60
2022-08-23T03:59:40.116Z,0.60
2022-08-23T04:02:10.137Z,0.50
2022-08-23T04:04:37.277Z,0.77
2022-08-23T04:07:28.397Z,0.70
2022-08-23T04:09:58.068Z,0.60
2022-08-23T04:12:28.708Z,0.90
2022-08-23T04:14:55.714Z,0.60
2022-08-23T04:17:24.098Z,0.70
2022-08-23T04:19:52.615Z,0.50
2022-08-23T04:22:20.576Z,0.70
2022-08-23T04:24:48.208Z,0.70
2022-08-23T04:27:16.806Z,0.60
2022-08-23T04:29:45.214Z,0.60
2022-08-23T04:32:12.512Z,0.90
2022-08-23T04:34:45.571Z,0.93
2022-08-23T04:37:18.793Z,0.80
2022-08-23T04:40:04.316Z,0.90
2022-08-23T04:42:40.975Z,0.70
2022-08-23T04:45:08.388Z,0.60
2022-08-23T04:47:40.373Z,0.43
2022-08-23T04:50:09.528Z,0.70
2022-08-23T04:52:48.093Z,0.60
2022-08-23T04:55:15.953Z,0.50
2022-08-23T04:57:52.317Z,0.50
2022-08-23T05:00:23.464Z,0.70
2022-08-23T05:02:57.680Z,1.00
2022-08-23T05:05:27.833Z,0.73
2022-08-23T05:07:55.624Z,0.83
2022-08-23T05:10:23.046Z,0.60
2022-08-23T05:12:53.127Z,0.80
2022-08-23T05:15:21.735Z,0.60
2022-08-23T05:17:56.221Z,0.40
2022-08-23T05:20:24.153Z,0.83
2022-08-23T05:22:51.432Z,0.60
2022-08-23T05:25:49.536Z,0.50
2022-08-23T05:28:29.661Z,0.60
2022-08-23T05:30:59.733Z,0.70
2022-08-23T05:33:32.242Z,0.70
2022-08-23T05:36:00.122Z,0.60
2022-08-23T05:38:28.131Z,0.87
2022-08-23T05:40:59.923Z,0.93
2022-08-23T05:43:27.190Z,0.90
2022-08-23T05:46:28.401Z,1.27
2022-08-23T05:49:21.814Z,1.57
2022-08-23T05:51:51.673Z,1.00
2022-08-23T05:54:20.579Z,1.00
2022-08-23T05:56:59.958Z,1.23
2022-08-23T05:59:26.929Z,1.23
2022-08-23T06:02:14.354Z,1.40
2022-08-23T06:05:01.347Z,1.03
2022-08-23T06:07:48.344Z,0.90
2022-08-23T06:10:41.709Z,1.23
2022-08-23T06:13:46.162Z,1.07
2022-08-23T06:16:36.144Z,0.70
2022-08-23T06:19:25.024Z,0.70
2022-08-23T06:22:18.042Z,0.73
2022-08-23T06:25:09.109Z,0.50
2022-08-23T06:28:18.248Z,0.57
2022-08-23T06:31:06.567Z,0.60
2022-08-23T06:33:56.055Z,0.53
2022-08-23T06:37:01.753Z,0.47
2022-08-23T06:40:12.107Z,0.37
2022-08-23T06:43:14.792Z,0.43
2022-08-23T06:46:35.294Z,0.50
2022-08-23T06:49:22.531Z,0.37
2022-08-23T06:52:12.164Z,0.50
2022-08-23T06:55:37.558Z,0.70
2022-08-23T06:58:46.783Z,0.57
2022-08-23T07:01:58.496Z,0.40
2022-08-23T07:05:01.245Z,0.60
2022-08-23T07:08:11.892Z,0.47
2022-08-23T07:10:59.484Z,0.50
2022-08-23T07:13:46.582Z,0.60
2022-08-23T07:16:34.293Z,0.63
2022-08-23T07:19:22.288Z,0.43
2022-08-23T07:22:17.469Z,0.37
2022-08-23T07:25:04.536Z,0.67
2022-08-23T07:27:53.022Z,0.60
2022-08-23T07:30:44.942Z,0.40
2022-08-23T07:33:32.946Z,0.40
2022-08-23T07:36:29.520Z,0.60
2022-08-23T07:39:17.412Z,0.43
2022-08-23T07:42:15.945Z,0.20
2022-08-23T07:45:13.197Z,0.30
2022-08-23T07:48:01.255Z,0.40
2022-08-23T07:50:56.681Z,0.30
2022-08-23T07:53:48.340Z,0.20
2022-08-23T07:56:39.064Z,0.37
2022-08-23T07:59:34.449Z,0.33
2022-08-23T08:02:53.755Z,0.30
2022-08-23T08:05:47.809Z,0.30
2022-08-23T08:08:35.521Z,0.60
2022-08-23T08:11:22.736Z,0.30
2022-08-23T08:14:11.577Z,0.50
2022-08-23T08:17:08.257Z,0.47
2022-08-23T08:20:15.644Z,0.50
2022-08-23T08:23:28.907Z,0.40
2022-08-23T08:26:32.053Z,0.60
2022-08-23T08:29:19.738Z,0.50
2022-08-23T08:32:06.830Z,0.50
2022-08-23T08:34:58.664Z,0.70
2022-08-23T08:37:45.621Z,0.60
2022-08-23T08:40:45.438Z,0.50
2022-08-23T08:43:50.624Z,0.53
2022-08-23T08:46:53.599Z,0.80
2022-08-23T08:50:00.118Z,0.60
2022-08-23T08:52:50.957Z,0.57
2022-08-23T08:55:58.795Z,0.60
2022-08-23T08:59:01.976Z,0.47
2022-08-23T09:01:52.634Z,0.83
2022-08-23T09:04:48.216Z,0.70
2022-08-23T09:07:53.682Z,0.40
2022-08-23T09:10:40.975Z,0.63
2022-08-23T09:13:46.355Z,0.70
2022-08-23T09:16:50.022Z,0.57
2022-08-23T09:19:39.233Z,0.90
2022-08-23T09:22:32.649Z,0.73
2022-08-23T09:25:20.020Z,0.77
2022-08-23T09:28:16.692Z,0.67
2022-08-23T09:31:17.441Z,0.80
2022-08-23T09:34:08.560Z,0.80
2022-08-23T09:37:05.612Z,0.80
2022-08-23T09:39:54.899Z,0.97
2022-08-23T09:42:54.729Z,0.90
2022-08-23T09:45:53.049Z,0.90
2022-08-23T09:48:55.969Z,0.83
2022-08-23T09:51:54.913Z,0.70
2022-08-23T09:54:47.495Z,0.97
2022-08-23T09:57:45.154Z,0.87
2022-08-23T10:00:49.583Z,1.00
2022-08-23T10:03:48.866Z,1.10
2022-08-23T10:06:52.537Z,0.90
2022-08-23T10:09:52.881Z,0.97
2022-08-23T10:12:41.085Z,1.00
2022-08-23T10:15:32.995Z,0.80
2022-08-23T10:18:31.054Z,0.97
2022-08-23T10:21:39.349Z,0.80
2022-08-23T10:24:32.462Z,0.80
2022-08-23T10:27:24.085Z,0.83
2022-08-23T10:30:21.025Z,0.70
2022-08-23T10:33:18.601Z,0.83
2022-08-23T10:36:26.561Z,0.73
2022-08-23T10:39:18.093Z,0.70
2022-08-23T10:42:24.600Z,0.70
2022-08-23T10:45:23.545Z,0.57
2022-08-23T10:48:49.062Z,0.80
2022-08-23T10:51:42.136Z,0.60
2022-08-23T10:54:52.129Z,0.50
2022-08-23T10:57:53.640Z,0.57
2022-08-23T11:00:46.017Z,0.40
2022-08-23T11:03:47.803Z,0.50
2022-08-23T11:07:00.740Z,0.43
2022-08-23T11:09:55.137Z,0.30
2022-08-23T11:12:50.608Z,0.60
2022-08-23T11:16:22.801Z,0.30
2022-08-23T11:19:11.101Z,0.50
2022-08-23T11:22:03.617Z,0.60
2022-08-23T11:24:53.180Z,0.37
2022-08-23T11:27:51.751Z,0.40
2022-08-23T11:30:36.778Z,0.40
2022-08-23T11:33:39.331Z,0.50
2022-08-23T11:36:29.229Z,0.40
2022-08-23T11:39:24.558Z,0.40
2022-08-23T11:42:16.238Z,0.40
2022-08-23T11:45:08.362Z,0.50
2022-08-23T11:48:03.949Z,0.47
2022-08-23T11:51:18.348Z,0.40
2022-08-23T11:54:14.472Z,0.40
2022-08-23T11:57:15.826Z,0.40
2022-08-23T12:00:37.206Z,0.50
2022-08-23T12:03:41.880Z,0.50
2022-08-23T12:06:53.071Z,0.30
2022-08-23T12:09:39.987Z,0.40
2022-08-23T12:12:50.393Z,0.67
2022-08-23T12:15:37.566Z,0.67
2022-08-23T12:18:32.992Z,0.60
2022-08-23T12:21:23.147Z,0.40
2022-08-23T12:24:32.330Z,0.40
2022-08-23T12:27:38.258Z,0.40
2022-08-23T12:30:44.247Z,0.50
2022-08-23T12:33:53.280Z,0.50
2022-08-23T12:37:08.858Z,0.40
2022-08-23T12:40:00.049Z,0.30
2022-08-23T12:42:49.600Z,0.37
2022-08-23T12:45:42.173Z,0.37
2022-08-23T12:48:32.256Z,0.57
2022-08-23T12:51:22.620Z,0.47
2022-08-23T12:54:09.620Z,0.30
2022-08-23T12:56:56.813Z,0.50
2022-08-23T13:00:16.706Z,0.60
2022-08-23T13:03:12.652Z,0.40
2022-08-23T13:06:15.542Z,0.40
2022-08-23T13:09:11.713Z,0.50
2022-08-23T13:12:00.325Z,0.50
2022-08-23T13:14:54.083Z,0.47
2022-08-23T13:17:46.940Z,0.60
2022-08-23T13:20:42.273Z,0.40
2022-08-23T13:23:29.273Z,0.50
2022-08-23T13:26:16.750Z,0.50
2022-08-23T13:29:21.972Z,0.47
2022-08-23T13:32:21.263Z,0.40
2022-08-23T13:35:08.285Z,0.30
2022-08-23T13:37:55.454Z,0.47
2022-08-23T13:40:47.160Z,0.40
2022-08-23T13:43:41.150Z,0.40
2022-08-23T13:46:39.638Z,0.40
2022-08-23T13:49:38.168Z,0.40
2022-08-23T13:55:36.270Z,0.60
2022-08-23T13:58:10.566Z,0.27
2022-08-23T14:00:58.869Z,0.60
2022-08-23T14:03:49.186Z,0.40
2022-08-23T14:06:16.470Z,0.43
2022-08-23T14:08:43.570Z,0.40
2022-08-23T14:11:15.032Z,0.37
2022-08-23T14:13:47.933Z,0.40
2022-08-23T14:16:34.640Z,0.40
2022-08-23T14:20:31.365Z,0.30
2022-08-23T14:21:51.396Z,0.30
2022-08-23T14:24:20.901Z,0.40
2022-08-23T14:26:51.762Z,0.30
2022-08-23T14:29:22.619Z,0.30
2022-08-23T14:31:52.114Z,0.40
2022-08-23T14:34:40.411Z,0.40
2022-08-23T14:40:15.729Z,0.40
2022-08-23T14:43:04.607Z,0.70
2022-08-23T14:45:51.898Z,0.53
2022-08-23T14:48:39.417Z,0.40
2022-08-23T14:51:26.645Z,0.30
2022-08-23T14:54:14.846Z,0.30
2022-08-23T14:56:41.942Z,0.40
2022-08-23T14:59:08.896Z,0.60
2022-08-23T15:01:37.310Z,0.50
2022-08-23T15:04:05.183Z,0.50
2022-08-23T15:06:32.300Z,0.70
2022-08-23T15:08:59.416Z,0.37
2022-08-23T15:14:14.027Z,0.50
2022-08-23T15:16:41.547Z,0.50
2022-08-23T15:19:08.608Z,0.40
2022-08-23T15:21:35.584Z,0.50
2022-08-23T15:24:02.848Z,0.30
2022-08-23T15:26:31.417Z,0.40
2022-08-23T15:28:59.711Z,0.37
2022-08-23T15:31:27.364Z,0.30
2022-08-23T15:33:54.537Z,0.40
2022-08-23T15:36:21.719Z,0.50
2022-08-23T15:38:50.567Z,0.30
2022-08-23T15:41:19.128Z,0.53
2022-08-23T15:43:46.484Z,0.60
2022-08-23T15:46:21.656Z,0.60
2022-08-23T15:48:54.780Z,0.40
2022-08-23T15:51:21.812Z,0.50
2022-08-23T15:53:48.913Z,0.60
2022-08-23T15:56:21.161Z,0.67
2022-08-23T15:58:48.704Z,0.50
2022-08-23T16:01:19.832Z,0.70
2022-08-23T16:03:50.026Z,0.57
2022-08-23T16:06:17.893Z,0.50
2022-08-23T16:08:49.944Z,0.60
2022-08-23T16:11:17.037Z,1.10
2022-08-23T16:13:45.528Z,0.67
2022-08-23T16:16:32.225Z,0.80
2022-08-23T16:19:00.129Z,0.90
2022-08-23T16:21:29.987Z,0.60
2022-08-23T16:23:58.010Z,0.60
2022-08-23T16:26:34.805Z,0.40
2022-08-23T16:29:05.808Z,0.50
2022-08-23T16:31:39.086Z,0.70
2022-08-23T16:34:09.493Z,0.60
2022-08-23T16:36:37.053Z,0.50
2022-08-23T16:39:05.597Z,0.70
2022-08-23T16:41:32.832Z,0.60
2022-08-23T16:44:00.015Z,0.70
2022-08-23T16:46:29.246Z,0.47
2022-08-23T16:48:56.400Z,0.73
2022-08-23T16:51:23.452Z,0.90
2022-08-23T16:54:01.777Z,0.60
2022-08-23T16:56:34.261Z,0.60
2022-08-23T16:59:03.196Z,0.60
2022-08-23T17:01:42.350Z,0.70
2022-08-23T17:04:10.065Z,0.80
2022-08-23T17:06:37.033Z,0.70
2022-08-23T17:09:04.234Z,0.70
2022-08-23T17:11:32.973Z,0.70
2022-08-23T17:14:04.817Z,0.70
2022-08-23T17:16:33.226Z,0.70
2022-08-23T17:19:00.513Z,0.70
2022-08-23T17:21:27.508Z,0.60
2022-08-23T17:23:54.924Z,0.67
2022-08-23T17:26:22.312Z,1.00
2022-08-23T17:28:49.300Z,0.90
2022-08-23T17:31:17.901Z,1.00
2022-08-23T17:33:46.377Z,0.90
2022-08-23T17:36:43.094Z,0.80
2022-08-23T17:39:17.773Z,0.90
2022-08-23T17:41:45.656Z,0.85
2022-08-23T17:44:13.845Z,0.80
2022-08-23T17:46:44.462Z,0.90
2022-08-23T17:49:12.562Z,0.83
2022-08-23T17:51:41.202Z,0.80
2022-08-23T17:54:10.094Z,1.00
2022-08-23T17:56:38.197Z,1.00
2022-08-23T17:59:08.648Z,0.90
2022-08-23T18:01:37.193Z,0.90
2022-08-23T18:04:07.415Z,1.00
2022-08-23T18:06:36.541Z,1.17
2022-08-23T18:09:07.859Z,1.10
2022-08-23T18:11:36.345Z,0.80
2022-08-23T18:14:04.240Z,0.90
2022-08-23T18:16:35.681Z,0.83
2022-08-23T18:19:06.079Z,0.90
2022-08-23T18:21:38.588Z,1.07
2022-08-23T18:24:06.697Z,1.10
2022-08-23T18:26:54.073Z,0.93
2022-08-23T18:29:21.846Z,1.10
2022-08-23T18:31:48.921Z,1.00
2022-08-23T18:34:16.665Z,1.10
2022-08-23T18:37:04.409Z,1.10
2022-08-23T18:39:51.513Z,1.27
2022-08-23T18:42:38.612Z,1.00
2022-08-23T18:45:26.615Z,1.03
2022-08-23T18:48:13.707Z,1.07
2022-08-23T18:51:01.640Z,1.20
2022-08-23T18:53:49.534Z,1.40
2022-08-23T18:56:36.732Z,1.20
2022-08-23T18:59:24.476Z,1.23
2022-08-23T19:02:11.782Z,1.03
2022-08-23T19:04:58.753Z,1.10
2022-08-23T19:07:45.879Z,1.30
2022-08-23T19:10:32.858Z,1.10
2022-08-23T19:13:20.443Z,1.30
2022-08-23T19:16:07.420Z,1.37
2022-08-23T19:18:54.359Z,1.13
2022-08-23T19:21:44.590Z,1.20
2022-08-23T19:24:31.621Z,1.20
2022-08-23T19:27:18.644Z,1.40
2022-08-23T19:30:05.837Z,1.50
2022-08-23T19:32:53.657Z,1.43
2022-08-23T19:35:40.619Z,1.30
2022-08-23T19:38:27.478Z,1.40
2022-08-23T19:41:15.528Z,1.57
2022-08-23T19:44:02.693Z,1.47
2022-08-23T19:46:49.716Z,1.67
2022-08-23T19:49:37.206Z,1.70
2022-08-23T19:52:25.081Z,1.50
2022-08-23T19:55:12.040Z,1.30
2022-08-23T19:57:59.160Z,1.50
2022-08-23T20:00:47.067Z,1.70
2022-08-23T20:03:34.100Z,1.50
2022-08-23T20:06:20.944Z,1.80
2022-08-23T20:09:08.036Z,1.70
2022-08-23T20:11:55.263Z,1.50
2022-08-23T20:14:44.228Z,2.00
2022-08-23T20:17:31.704Z,1.60
2022-08-23T20:20:18.819Z,1.47
2022-08-23T20:23:04.440Z,1.80
2022-08-23T20:25:31.671Z,2.00
2022-08-23T20:27:58.777Z,1.80
2022-08-23T20:30:25.773Z,2.00
2022-08-23T20:32:52.799Z,1.50
2022-08-23T20:35:19.700Z,1.70
2022-08-23T20:37:46.611Z,2.23
2022-08-23T20:40:14.870Z,1.93
2022-08-23T20:42:41.992Z,2.30
2022-08-23T20:45:09.379Z,2.10
2022-08-23T20:47:36.749Z,2.17
2022-08-23T20:50:04.128Z,1.90
2022-08-23T20:52:34.505Z,2.17
2022-08-23T20:55:02.317Z,1.80
2022-08-23T20:57:35.812Z,1.63
2022-08-23T21:00:07.840Z,1.87
2022-08-23T21:02:34.890Z,1.70
2022-08-23T21:05:01.808Z,1.73
2022-08-23T21:07:31.941Z,1.70
2022-08-23T21:09:59.026Z,1.73
2022-08-23T21:12:28.123Z,1.70
2022-08-23T21:14:56.812Z,1.50
2022-08-23T21:17:23.829Z,1.83
2022-08-23T21:19:50.942Z,1.77
2022-08-23T21:22:18.132Z,1.97
2022-08-23T21:24:45.141Z,2.57
2022-08-23T21:27:12.696Z,1.67
2022-08-23T21:29:40.457Z,1.80
2022-08-23T21:32:08.011Z,1.87
2022-08-23T21:34:35.008Z,1.53
2022-08-23T21:37:02.068Z,1.90
2022-08-23T21:39:49.071Z,2.00
2022-08-23T21:42:36.057Z,1.90
2022-08-23T21:45:23.741Z,1.47
2022-08-23T21:48:10.724Z,1.80
2022-08-23T21:50:57.577Z,1.90
2022-08-23T21:53:44.604Z,1.53
2022-08-23T21:56:31.476Z,1.77
2022-08-23T21:59:24.162Z,1.70
2022-08-23T22:02:11.103Z,1.60
2022-08-23T22:04:58.508Z,1.63
2022-08-23T22:07:45.348Z,1.90
2022-08-23T22:10:32.577Z,1.90
2022-08-23T22:13:19.469Z,1.90
2022-08-23T22:16:06.787Z,1.87
2022-08-23T22:18:54.788Z,1.83
2022-08-23T22:21:41.843Z,1.73
2022-08-23T22:24:30.677Z,1.83
2022-08-23T22:27:17.910Z,1.80
2022-08-23T22:30:04.911Z,2.10
2022-08-23T22:32:51.809Z,2.07
2022-08-23T22:35:38.844Z,1.80
2022-08-23T22:38:25.925Z,2.10
2022-08-23T22:41:13.184Z,1.70
2022-08-23T22:44:00.406Z,1.83
2022-08-23T22:46:50.404Z,1.73
2022-08-23T22:49:37.860Z,1.67
2022-08-23T22:52:25.017Z,1.80
2022-08-23T22:55:12.340Z,1.83
2022-08-23T22:57:59.278Z,1.70
2022-08-23T23:00:46.371Z,1.80
2022-08-23T23:03:33.234Z,1.77
2022-08-23T23:06:20.830Z,1.83
2022-08-23T23:09:08.740Z,1.70
2022-08-23T23:11:57.069Z,1.70
2022-08-23T23:14:44.182Z,1.73
2022-08-23T23:17:31.417Z,1.40
2022-08-23T23:20:16.776Z,1.83
2022-08-23T23:23:04.582Z,1.43
2022-08-23T23:25:51.773Z,1.57
2022-08-23T23:28:40.601Z,1.40
2022-08-23T23:31:27.763Z,1.43
2022-08-23T23:34:14.724Z,1.40
2022-08-23T23:37:01.821Z,1.40
2022-08-23T23:39:48.893Z,1.50
2022-08-23T23:42:35.829Z,1.80
2022-08-23T23:45:22.873Z,1.70
2022-08-23T23:48:10.197Z,1.60
2022-08-23T23:51:01.385Z,1.40
2022-08-23T23:53:48.263Z,1.60
2022-08-23T23:56:36.981Z,1.57
2022-08-23T23:59:23.926Z,1.60
